Wetterdaten: Woche 20.12.10 - 26.12.10 (KW51)
Datum Zeit Temp. A. Feuchte A. Luftdruck Regen Wind Richtung Taupunkt Windchill Windben
20.12.2010 00:00 -11,0 C 85 % 1004,3 hPa 0,0 l/m 0,0 km/h N -12,9 C -11,0 C 0,8 km/h
20.12.2010 01:00 -11,0 C 85 % 1003,4 hPa 0,0 l/m 0,0 km/h N -13,0 C -11,0 C 0,8 km/h
20.12.2010 02:00 -11,0 C 85 % 1003,5 hPa 0,0 l/m 0,0 km/h N -13,0 C -11,0 C 1,6 km/h
20.12.2010 03:00 -10,9 C 86 % 1003,3 hPa 0,0 l/m 0,2 km/h N -12,8 C -10,9 C 2,8 km/h
20.12.2010 04:00 -7,8 C 86 % 1003,8 hPa 0,0 l/m 1,9 km/h N-NW -9,7 C -7,8 C 6,8 km/h
20.12.2010 05:00 -6,7 C 86 % 1005,1 hPa 0,0 l/m 3,1 km/h N-NW -8,7 C -6,7 C 9,7 km/h
20.12.2010 06:00 -7,4 C 84 % 1005,8 hPa 0,0 l/m 0,1 km/h N -9,6 C -7,4 C 2,0 km/h
20.12.2010 07:00 -8,8 C 84 % 1006,8 hPa 0,0 l/m 0,0 km/h N -11,1 C -8,8 C 1,2 km/h
20.12.2010 08:00 -9,4 C 84 % 1007,5 hPa 0,0 l/m 0,0 km/h N -11,5 C -9,4 C 0,8 km/h
20.12.2010 09:00 -8,5 C 85 % 1007,5 hPa 0,0 l/m 0,0 km/h N -10,6 C -8,5 C 0,0 km/h
20.12.2010 10:00 -6,0 C 86 % 1007,8 hPa 0,0 l/m 0,3 km/h N -8,0 C -6,0 C 2,4 km/h
20.12.2010 11:00 -4,3 C 85 % 1007,8 hPa 0,0 l/m 1,1 km/h O-NO -6,4 C -4,3 C 4,0 km/h
20.12.2010 12:00 -3,3 C 84 % 1007,6 hPa 0,0 l/m 0,6 km/h N -5,6 C -3,3 C 3,2 km/h
20.12.2010 13:00 -2,2 C 83 % 1007,0 hPa 0,0 l/m 1,0 km/h O -4,6 C -2,2 C 4,4 km/h
20.12.2010 14:00 -1,1 C 83 % 1006,3 hPa 0,0 l/m 0,1 km/h N -3,7 C -1,1 C 2,8 km/h
20.12.2010 15:00 -1,2 C 81 % 1006,7 hPa 0,0 l/m 0,6 km/h O-SO -4,1 C -1,2 C 2,8 km/h
20.12.2010 16:00 -3,2 C 79 % 1007,3 hPa 0,0 l/m 0,0 km/h N -6,3 C -3,2 C 0,8 km/h
20.12.2010 17:00 -4,7 C 81 % 1008,0 hPa 0,0 l/m 0,0 km/h N -7,5 C -4,7 C 0,4 km/h
20.12.2010 18:00 -6,0 C 83 % 1008,6 hPa 0,0 l/m 0,0 km/h N -8,5 C -6,0 C 1,2 km/h
20.12.2010 19:00 -6,1 C 86 % 1008,8 hPa 0,0 l/m 0,0 km/h N -8,0 C -6,1 C 2,0 km/h
20.12.2010 20:00 -5,4 C 85 % 1008,8 hPa 0,0 l/m 0,0 km/h N -7,5 C -5,4 C 1,2 km/h
20.12.2010 21:00 -5,3 C 85 % 1009,3 hPa 0,0 l/m 0,1 km/h N -7,4 C -5,3 C 1,6 km/h
20.12.2010 22:00 -5,5 C 86 % 1010,0 hPa 0,0 l/m 0,0 km/h N -7,6 C -5,5 C 1,2 km/h
20.12.2010 23:00 -5,5 C 86 % 1010,1 hPa 0,0 l/m 0,4 km/h N -7,5 C -5,5 C 3,6 km/h
21.12.2010 00:00 -5,2 C 86 % 1010,4 hPa 0,0 l/m 0,2 km/h N -7,2 C -5,2 C 2,4 km/h
21.12.2010 01:00 -5,1 C 86 % 1011,4 hPa 0,0 l/m 0,1 km/h N -7,0 C -5,1 C 2,4 km/h
21.12.2010 02:00 -4,8 C 86 % 1012,1 hPa 0,0 l/m 0,1 km/h N -6,7 C -4,8 C 1,6 km/h
21.12.2010 03:00 -4,6 C 86 % 1012,3 hPa 0,0 l/m 0,0 km/h N -6,5 C -4,6 C 1,2 km/h
21.12.2010 04:00 -4,3 C 86 % 1012,4 hPa 0,0 l/m 0,1 km/h N -6,3 C -4,3 C 1,2 km/h
21.12.2010 05:00 -3,8 C 86 % 1012,6 hPa 0,0 l/m 0,0 km/h N -5,8 C -3,8 C 0,8 km/h
21.12.2010 06:00 -4,3 C 86 % 1012,5 hPa 0,0 l/m 0,0 km/h N -6,3 C -4,3 C 0,4 km/h
21.12.2010 07:00 -5,5 C 86 % 1012,1 hPa 0,0 l/m 0,0 km/h N -7,5 C -5,5 C 0,4 km/h
21.12.2010 08:00 -6,5 C 86 % 1011,9 hPa 0,0 l/m 0,0 km/h N -8,4 C -6,5 C 0,4 km/h
21.12.2010 09:00 -5,9 C 86 % 1011,9 hPa 0,0 l/m 0,1 km/h N -7,9 C -5,9 C 2,0 km/h
21.12.2010 10:00 -4,6 C 86 % 1011,9 hPa 0,0 l/m 0,7 km/h SO -6,5 C -4,6 C 2,8 km/h
21.12.2010 11:00 -3,0 C 86 % 1011,1 hPa 0,0 l/m 0,0 km/h N -5,0 C -3,0 C 1,2 km/h
21.12.2010 12:00 -1,9 C 86 % 1010,3 hPa 0,0 l/m 0,1 km/h N -4,0 C -1,9 C 1,2 km/h
21.12.2010 13:00 -1,4 C 85 % 1010,1 hPa 0,0 l/m 0,6 km/h N -3,5 C -1,4 C 3,6 km/h
21.12.2010 14:00 -1,3 C 85 % 1010,3 hPa 0,0 l/m 0,1 km/h N -3,5 C -1,3 C 2,8 km/h
21.12.2010 15:00 -1,4 C 85 % 1010,9 hPa 0,0 l/m 0,1 km/h N -3,6 C -1,4 C 2,0 km/h
21.12.2010 16:00 -1,5 C 85 % 1011,1 hPa 0,0 l/m 0,1 km/h N -3,6 C -1,5 C 0,4 km/h
21.12.2010 17:00 -1,5 C 85 % 1011,3 hPa 0,0 l/m 0,0 km/h N -3,7 C -1,5 C 0,0 km/h
21.12.2010 18:00 -1,5 C 85 % 1011,6 hPa 0,0 l/m 0,0 km/h N -3,7 C -1,5 C 0,4 km/h
21.12.2010 19:00 -1,6 C 85 % 1011,4 hPa 0,0 l/m 0,1 km/h N -3,7 C -1,6 C 1,6 km/h
21.12.2010 20:00 -1,8 C 85 % 1011,4 hPa 0,0 l/m 0,0 km/h N -4,0 C -1,8 C 1,2 km/h
21.12.2010 21:00 -2,0 C 85 % 1011,5 hPa 0,0 l/m 0,2 km/h N -4,1 C -2,0 C 1,6 km/h
21.12.2010 22:00 -1,6 C 85 % 1011,3 hPa 0,0 l/m 0,2 km/h N -3,8 C -1,6 C 1,6 km/h
21.12.2010 23:00 -1,4 C 85 % 1011,2 hPa 0,0 l/m 0,1 km/h N -3,6 C -1,4 C 1,6 km/h
22.12.2010 00:00 -1,1 C 85 % 1010,9 hPa 0,0 l/m 0,0 km/h N -3,3 C -1,1 C 0,4 km/h
22.12.2010 01:00 -0,9 C 85 % 1010,6 hPa 0,0 l/m 0,0 km/h N -3,1 C -0,9 C 0,0 km/h
22.12.2010 02:00 -0,8 C 85 % 1010,2 hPa 0,0 l/m 0,0 km/h N -3,0 C -0,8 C 0,4 km/h
22.12.2010 03:00 -0,8 C 85 % 1009,5 hPa 0,0 l/m 0,0 km/h N -3,0 C -0,8 C 0,0 km/h
22.12.2010 04:00 -0,8 C 85 % 1009,0 hPa 0,0 l/m 0,0 km/h N -3,0 C -0,8 C 0,0 km/h
22.12.2010 05:00 -0,8 C 85 % 1008,8 hPa 0,0 l/m 0,0 km/h N -3,0 C -0,8 C 0,0 km/h
22.12.2010 06:00 -0,7 C 85 % 1008,2 hPa 0,0 l/m 0,0 km/h N -2,9 C -0,7 C 0,8 km/h
22.12.2010 07:00 -0,6 C 85 % 1007,9 hPa 0,0 l/m 0,0 km/h N -2,8 C -0,6 C 0,0 km/h
22.12.2010 08:00 -0,6 C 85 % 1007,8 hPa 0,0 l/m 0,1 km/h N -2,8 C -0,6 C 1,6 km/h
22.12.2010 09:00 -0,2 C 85 % 1007,7 hPa 0,0 l/m 0,6 km/h N -2,4 C -0,2 C 4,0 km/h
22.12.2010 10:00 -0,1 C 85 % 1007,8 hPa 0,0 l/m 1,6 km/h NW -2,3 C -0,1 C 5,6 km/h
22.12.2010 11:00 0,2 C 84 % 1007,4 hPa 0,0 l/m 1,5 km/h NW -2,2 C 0,2 C 4,8 km/h
22.12.2010 12:00 0,5 C 85 % 1007,2 hPa 0,0 l/m 1,8 km/h NW -1,8 C 0,5 C 4,8 km/h
22.12.2010 13:00 0,8 C 85 % 1007,0 hPa 0,0 l/m 1,8 km/h NW -1,5 C 0,8 C 6,0 km/h
22.12.2010 14:00 0,7 C 85 % 1007,1 hPa 0,3 l/m 3,8 km/h NW -1,5 C 0,7 C 8,4 km/h
22.12.2010 15:00 0,6 C 85 % 1007,4 hPa 0,3 l/m 2,4 km/h NW -1,6 C 0,6 C 6,8 km/h
22.12.2010 16:00 0,4 C 85 % 1007,6 hPa 0,0 l/m 0,5 km/h N -1,8 C 0,4 C 2,8 km/h
22.12.2010 17:00 0,3 C 85 % 1007,7 hPa 0,0 l/m 0,3 km/h NW -2,0 C 0,3 C 2,4 km/h
22.12.2010 18:00 0,2 C 86 % 1007,6 hPa 0,0 l/m 0,0 km/h N -2,0 C 0,2 C 1,2 km/h
22.12.2010 19:00 0,1 C 86 % 1007,4 hPa 0,0 l/m 0,0 km/h N -2,0 C 0,1 C 0,0 km/h
22.12.2010 20:00 0,3 C 85 % 1007,1 hPa 0,0 l/m 0,0 km/h N -2,0 C 0,3 C 0,0 km/h
22.12.2010 21:00 0,4 C 85 % 1006,9 hPa 0,3 l/m 0,1 km/h N -1,8 C 0,4 C 1,6 km/h
22.12.2010 22:00 0,7 C 85 % 1006,8 hPa 0,0 l/m 0,1 km/h N -1,5 C 0,7 C 1,6 km/h
22.12.2010 23:00 0,8 C 85 % 1006,5 hPa 0,0 l/m 0,0 km/h N -1,4 C 0,8 C 0,0 km/h
23.12.2010 00:00 0,7 C 85 % 1006,1 hPa 0,0 l/m 0,1 km/h W-SW -1,5 C 0,7 C 2,0 km/h
23.12.2010 01:00 0,6 C 85 % 1005,8 hPa 0,3 l/m 0,8 km/h N -1,6 C 0,6 C 4,4 km/h
23.12.2010 02:00 0,5 C 85 % 1005,4 hPa 0,0 l/m 0,3 km/h N -1,7 C 0,5 C 3,6 km/h
23.12.2010 03:00 0,4 C 85 % 1004,8 hPa 0,0 l/m 1,0 km/h SW -1,8 C 0,4 C 5,2 km/h
23.12.2010 04:00 0,0 C 85 % 1004,5 hPa 0,0 l/m 2,1 km/h SW -2,2 C 0,0 C 7,6 km/h
23.12.2010 05:00 -0,1 C 85 % 1004,2 hPa 0,0 l/m 0,8 km/h SW -2,3 C -0,1 C 5,6 km/h
23.12.2010 06:00 -0,2 C 85 % 1004,1 hPa 0,0 l/m 1,8 km/h SW -2,4 C -0,2 C 6,0 km/h
23.12.2010 07:00 -0,4 C 85 % 1004,0 hPa 0,0 l/m 2,6 km/h SW -2,6 C -0,4 C 6,8 km/h
23.12.2010 08:00 -0,6 C 85 % 1003,9 hPa 0,0 l/m 2,0 km/h SW -2,8 C -0,6 C 6,8 km/h
23.12.2010 09:00 -0,3 C 85 % 1003,8 hPa 0,0 l/m 0,8 km/h N -2,5 C -0,3 C 4,4 km/h
23.12.2010 10:00 0,4 C 85 % 1003,6 hPa 0,5 l/m 1,3 km/h SW -1,8 C 0,4 C 5,2 km/h
23.12.2010 11:00 1,2 C 84 % 1003,0 hPa 0,5 l/m 0,3 km/h N -1,2 C 1,2 C 2,8 km/h
23.12.2010 12:00 1,7 C 85 % 1002,2 hPa 0,5 l/m 0,1 km/h N -0,6 C 1,7 C 2,8 km/h
23.12.2010 13:00 2,0 C 84 % 1001,5 hPa 0,3 l/m 0,3 km/h N -0,3 C 2,0 C 2,8 km/h
23.12.2010 14:00 2,4 C 84 % 1000,7 hPa 0,3 l/m 0,1 km/h N 0,0 C 2,4 C 2,0 km/h
23.12.2010 15:00 3,0 C 84 % 1000,5 hPa 0,0 l/m 0,2 km/h N 0,5 C 3,0 C 2,8 km/h
23.12.2010 16:00 2,8 C 85 % 1000,4 hPa 0,0 l/m 0,0 km/h N 0,4 C 2,8 C 1,2 km/h
23.12.2010 17:00 2,6 C 84 % 1000,4 hPa 0,0 l/m 0,1 km/h N 0,2 C 2,6 C 1,2 km/h
23.12.2010 18:00 2,6 C 85 % 1000,5 hPa 0,0 l/m 0,1 km/h N 0,3 C 2,6 C 2,0 km/h
23.12.2010 19:00 2,1 C 84 % 1000,6 hPa 0,0 l/m 0,2 km/h N -0,2 C 2,1 C 2,8 km/h
23.12.2010 20:00 3,2 C 84 % 1000,1 hPa 0,0 l/m 0,3 km/h N 0,7 C 3,2 C 3,2 km/h
23.12.2010 21:00 4,4 C 84 % 999,9 hPa 0,0 l/m 0,3 km/h N 1,9 C 4,4 C 3,2 km/h
23.12.2010 22:00 4,3 C 84 % 999,4 hPa 0,0 l/m 0,2 km/h S-SO 1,8 C 4,3 C 2,4 km/h
23.12.2010 23:00 4,8 C 84 % 998,8 hPa 0,0 l/m 1,2 km/h O-SO 2,2 C 4,8 C 5,6 km/h
24.12.2010 00:00 5,6 C 84 % 998,4 hPa 0,0 l/m 0,5 km/h N 3,0 C 5,6 C 4,8 km/h
24.12.2010 01:00 4,4 C 85 % 997,9 hPa 0,0 l/m 0,0 km/h N 2,1 C 4,4 C 0,8 km/h
24.12.2010 02:00 3,0 C 85 % 997,6 hPa 0,0 l/m 0,0 km/h N 0,6 C 3,0 C 1,2 km/h
24.12.2010 03:00 3,1 C 85 % 997,2 hPa 0,0 l/m 0,1 km/h N 0,8 C 3,1 C 1,6 km/h
24.12.2010 04:00 3,7 C 84 % 996,7 hPa 0,0 l/m 0,0 km/h N 1,3 C 3,7 C 0,4 km/h
24.12.2010 05:00 3,2 C 84 % 996,1 hPa 0,3 l/m 0,0 km/h N 0,8 C 3,2 C 0,8 km/h
24.12.2010 06:00 4,1 C 84 % 995,8 hPa 0,0 l/m 1,1 km/h S 1,6 C 4,1 C 8,1 km/h
24.12.2010 07:00 5,1 C 84 % 995,5 hPa 0,3 l/m 0,0 km/h N 2,6 C 5,1 C 4,0 km/h
24.12.2010 08:00 4,6 C 85 % 995,4 hPa 0,3 l/m 0,0 km/h O-SO 2,2 C 4,6 C 3,2 km/h
24.12.2010 09:00 4,9 C 83 % 995,0 hPa 0,0 l/m 0,8 km/h N 2,3 C 4,9 C 5,6 km/h
24.12.2010 10:00 5,6 C 83 % 994,6 hPa 0,0 l/m 0,0 km/h N 2,9 C 5,6 C 4,0 km/h
24.12.2010 11:00 6,0 C 84 % 994,4 hPa 0,0 l/m 0,0 km/h N 3,4 C 6,0 C 3,2 km/h
24.12.2010 12:00 6,2 C 83 % 994,0 hPa 0,0 l/m 0,0 km/h N 3,5 C 6,2 C 0,8 km/h
24.12.2010 13:00 6,6 C 83 % 993,6 hPa 0,0 l/m 0,0 km/h N 4,0 C 6,6 C 1,6 km/h
24.12.2010 14:00 6,1 C 84 % 993,7 hPa 0,0 l/m 0,0 km/h N 3,6 C 6,1 C 1,6 km/h
24.12.2010 15:00 6,0 C 83 % 994,3 hPa 0,0 l/m 1,6 km/h O 3,3 C 6,0 C 6,4 km/h
24.12.2010 16:00 5,0 C 84 % 995,3 hPa 0,3 l/m 4,8 km/h W 2,5 C 5,0 C 12,9 km/h
24.12.2010 17:00 4,4 C 84 % 996,3 hPa 0,3 l/m 2,4 km/h W-SW 2,0 C 4,4 C 7,3 km/h
24.12.2010 18:00 4,4 C 86 % 996,9 hPa 0,5 l/m 4,0 km/h W 2,1 C 4,4 C 16,1 km/h
24.12.2010 19:00 4,3 C 85 % 997,4 hPa 0,0 l/m 6,4 km/h W 1,9 C 4,3 C 23,3 km/h
24.12.2010 20:00 4,6 C 78 % 997,9 hPa 0,0 l/m 8,9 km/h W 1,0 C 2,5 C 27,4 km/h
24.12.2010 21:00 4,9 C 73 % 998,2 hPa 0,0 l/m 10,5 km/h W 0,4 C 1,6 C 29,8 km/h
24.12.2010 22:00 4,6 C 73 % 998,7 hPa 0,8 l/m 12,1 km/h W 0,2 C 0,2 C 34,6 km/h
24.12.2010 23:00 4,1 C 73 % 999,3 hPa 0,5 l/m 12,1 km/h W -0,4 C -0,4 C 39,4 km/h
25.12.2010 00:00 3,8 C 73 % 999,9 hPa 0,0 l/m 11,3 km/h W -0,7 C -0,2 C 32,2 km/h
25.12.2010 01:00 3,7 C 74 % 1000,3 hPa 0,0 l/m 12,9 km/h W -0,6 C -1,4 C 45,9 km/h
25.12.2010 02:00 3,4 C 71 % 1000,6 hPa 0,0 l/m 16,9 km/h W -1,3 C -3,8 C 45,0 km/h
25.12.2010 03:00 3,1 C 72 % 1000,9 hPa 0,0 l/m 16,1 km/h W -1,5 C -3,8 C 43,5 km/h
25.12.2010 04:00 2,7 C 71 % 1001,6 hPa 0,0 l/m 15,3 km/h W -2,1 C -3,9 C 44,3 km/h
25.12.2010 05:00 2,3 C 72 % 1002,4 hPa 0,0 l/m 11,3 km/h NW -2,2 C -1,8 C 45,0 km/h
25.12.2010 06:00 2,0 C 74 % 1003,4 hPa 0,0 l/m 10,5 km/h NW -2,2 C -1,6 C 33,8 km/h
25.12.2010 07:00 1,8 C 74 % 1004,2 hPa 0,0 l/m 10,5 km/h NW -2,4 C -1,8 C 37,0 km/h
25.12.2010 08:00 1,5 C 74 % 1005,2 hPa 0,0 l/m 10,5 km/h NW -2,6 C -2,2 C 28,2 km/h
25.12.2010 09:00 1,3 C 75 % 1006,3 hPa 0,0 l/m 9,6 km/h NW -2,6 C -1,6 C 31,4 km/h
25.12.2010 10:00 0,8 C 77 % 1007,3 hPa 0,0 l/m 11,3 km/h NW -2,8 C -3,6 C 33,0 km/h
25.12.2010 11:00 0,3 C 80 % 1007,7 hPa 0,0 l/m 13,7 km/h NW -2,9 C -5,9 C 33,8 km/h
25.12.2010 12:00 0,2 C 80 % 1008,2 hPa 0,0 l/m 13,7 km/h NW -2,9 C -5,9 C 41,0 km/h
25.12.2010 13:00 0,3 C 78 % 1008,7 hPa 0,0 l/m 14,5 km/h NW -3,2 C -6,3 C 39,5 km/h
25.12.2010 14:00 0,3 C 76 % 1009,1 hPa 0,0 l/m 13,7 km/h NW -3,5 C -5,9 C 33,8 km/h
25.12.2010 15:00 0,2 C 74 % 1010,3 hPa 0,0 l/m 14,5 km/h NW -3,9 C -6,5 C 39,4 km/h
25.12.2010 16:00 -0,4 C 76 % 1011,4 hPa 0,0 l/m 13,7 km/h NW -4,1 C -6,6 C 33,8 km/h
25.12.2010 17:00 -0,8 C 78 % 1012,6 hPa 0,0 l/m 13,7 km/h NW -4,1 C -7,0 C 37,8 km/h
25.12.2010 18:00 -0,9 C 76 % 1013,4 hPa 0,0 l/m 12,9 km/h NW -4,5 C -6,6 C 29,8 km/h
25.12.2010 19:00 -1,1 C 76 % 1014,3 hPa 0,0 l/m 11,3 km/h NW -4,9 C -5,7 C 35,4 km/h
25.12.2010 20:00 -1,3 C 75 % 1015,3 hPa 0,0 l/m 12,1 km/h NW -5,2 C -6,6 C 28,2 km/h
25.12.2010 21:00 -1,7 C 76 % 1016,1 hPa 0,0 l/m 12,9 km/h NW -5,3 C -7,6 C 33,0 km/h
25.12.2010 22:00 -1,8 C 77 % 1016,7 hPa 0,0 l/m 12,9 km/h NW -5,4 C -7,8 C 35,4 km/h
25.12.2010 23:00 -2,2 C 80 % 1017,3 hPa 0,0 l/m 11,3 km/h NW -5,3 C -7,0 C 28,2 km/h
26.12.2010 00:00 -2,3 C 78 % 1018,0 hPa 0,0 l/m 12,1 km/h NW -5,7 C -7,8 C 30,6 km/h
26.12.2010 01:00 -2,4 C 78 % 1018,4 hPa 0,0 l/m 8,9 km/h NW -5,8 C -5,1 C 22,5 km/h
26.12.2010 02:00 -3,0 C 77 % 1019,1 hPa 0,0 l/m 12,9 km/h NW -6,5 C -9,1 C 30,6 km/h
26.12.2010 03:00 -3,5 C 73 % 1019,6 hPa 0,0 l/m 11,3 km/h NW -7,8 C -8,5 C 32,2 km/h
26.12.2010 04:00 -3,7 C 69 % 1020,1 hPa 0,0 l/m 10,5 km/h NW -8,5 C -8,0 C 27,4 km/h
26.12.2010 05:00 -4,1 C 70 % 1020,6 hPa 0,0 l/m 11,3 km/h NW -8,7 C -9,1 C 27,4 km/h
26.12.2010 06:00 -4,1 C 70 % 1021,3 hPa 0,0 l/m 9,6 km/h NW -8,7 C -7,5 C 23,3 km/h
26.12.2010 07:00 -4,3 C 72 % 1021,7 hPa 0,0 l/m 12,1 km/h NW -8,6 C -10,0 C 29,0 km/h
26.12.2010 08:00 -4,2 C 71 % 1022,5 hPa 0,0 l/m 16,1 km/h NW -8,7 C -12,8 C 34,6 km/h
26.12.2010 09:00 -4,3 C 70 % 1023,0 hPa 0,0 l/m 13,7 km/h NW -9,0 C -11,2 C 33,0 km/h
26.12.2010 10:00 -3,9 C 69 % 1023,5 hPa 0,0 l/m 12,1 km/h NW -8,9 C -9,6 C 30,6 km/h
26.12.2010 11:00 -3,8 C 67 % 1023,6 hPa 0,0 l/m 13,7 km/h NW -9,2 C -10,6 C 32,2 km/h
26.12.2010 12:00 -3,9 C 64 % 1023,7 hPa 0,0 l/m 12,9 km/h NW -9,7 C -10,2 C 41,0 km/h
26.12.2010 13:00 -3,8 C 63 % 1023,5 hPa 0,0 l/m 12,1 km/h NW -9,7 C -9,4 C 33,8 km/h
26.12.2010 14:00 -3,8 C 62 % 1023,7 hPa 0,0 l/m 12,9 km/h NW -10,0 C -10,1 C 33,8 km/h
26.12.2010 15:00 -3,9 C 61 % 1024,1 hPa 0,0 l/m 10,5 km/h NW -10,4 C -8,2 C 29,0 km/h
26.12.2010 16:00 -4,0 C 58 % 1024,3 hPa 0,0 l/m 8,0 km/h NW -11,1 C -5,8 C 25,0 km/h
26.12.2010 17:00 -4,1 C 59 % 1025,1 hPa 0,0 l/m 9,7 km/h NW -11,0 C -7,7 C 25,7 km/h
26.12.2010 18:00 -4,4 C 61 % 1025,5 hPa 0,0 l/m 8,9 km/h NW -10,8 C -7,2 C 22,5 km/h
26.12.2010 19:00 -4,5 C 61 % 1025,8 hPa 0,0 l/m 8,0 km/h NW -11,0 C -6,4 C 23,3 km/h
26.12.2010 20:00 -4,4 C 59 % 1025,8 hPa 0,0 l/m 4,0 km/h NW -11,2 C -4,4 C 15,3 km/h
26.12.2010 21:00 -4,1 C 58 % 1025,7 hPa 0,0 l/m 4,8 km/h NW -11,2 C -4,1 C 12,9 km/h
26.12.2010 22:00 -4,3 C 59 % 1025,6 hPa 0,0 l/m 4,8 km/h NW -11,2 C -4,3 C 15,3 km/h
26.12.2010 23:00 -3,9 C 61 % 1025,3 hPa 0,0 l/m 4,0 km/h NW -10,4 C -3,9 C 17,7 km/h
Min-Datum _ 20.12.10 26.12.10 24.12.10 - 20.12.10 - 20.12.10 26.12.10 20.12.10
_ Min-Zeit 00:00 16:30 13:30 - 00:00 - 00:00 08:00 00:30
Minimum _ -11,6 C 57 % 993,5 hPa - 0,0 km/h - -13,6 C -12,8 C 0,0 km/h
Max-Datum _ 24.12.10 20.12.10 26.12.10 24.12.10 25.12.10 - 24.12.10 24.12.10 25.12.10
_ Max-Zeit 13:00 19:30 19:00 22:30 02:00 - 13:00 13:00 02:00
Maximum _ 6,7 C 92 % 1025,8 hPa 0,8 l/m 17,7 km/h
W
- 4,0 C 6,7 C 48,3 km/h
W
Durchschnitt _ -0,9 C 80 % 1008,0 hPa #6,2 l/m 3,9 km/h NW -3,9 C -2,3 C 11,9 km/h